메인 페이지
METAR-TAF:

METAR-TAF

공항 :

Four Corners Regional Airport

Farmington, 뉴멕시코, 미국

위도: 36-44-37N, 경도: 108-13-45W, 고도: 1677m

현재 날씨관측

예보는 23분 전, 22:53시(UTC)에 발표되었습니다.
10kt
온도 13°C
습도 21%
기압 1018 hPa
시정: 16.1km
맑음

METAR: KFMN 162253Z 27010KT 10SM CLR 13/M09 A3006 RMK AO2 SLP183 T01281089

시각: 16:16 (23:16 UTC)

예보

예보는 5 시간 37분 전, 17:39시(UTC)에 발표되었습니다.
예보 대상 시간: 16일 18시부터 17일 18시까지 (UTC)
5kt
시정: 10km
고도 25000ft 상공 구름 보통
16일 2000시부터 (UTC)
7kt
시정: 10km
고도 25000ft 상공 구름 보통
17일 0200시부터 (UTC)
여러 방향의 바람 4kt
시정: 10km
고도 25000ft 상공 구름 보통
17일 0800시부터 (UTC)
5kt
시정: 10km
고도 25000ft 상공 구름 보통

TAF: KFMN 161739Z 1618/1718 09005KT P6SM SCT250 FM162000 28007KT P6SM SCT250 FM170200 VRB04KT P6SM SCT250 FM170800 08005KT P6SM SCT250

4,000개 이상의 공항 관측 자료 및 예보 (METAR 및 TAF 보고).

지도상에서 검색 가능한 기상관측소가 노란 점과 빨간 점으로 표시되어 있습니다.

기상관측소 명을 보려면 표시 위로 마우스를 이동하세요.

날씨 관측과 예보를 보려면 클릭하세요.

지도 변경 : 확대하려면 엑스 표시가 있는 녹색 버튼, 축소하려면 빼기 표시가 있는 녹색 버튼, 다음 페이지의 지도를 보려면 녹색 화살표를 클릭하세요.


METAR-TAF: